createdAt,value
2023-04-18T00:02:01.604Z,8.90
2023-04-18T00:04:29.852Z,9.00
2023-04-18T00:06:57.942Z,9.00
2023-04-18T00:09:25.874Z,9.20
2023-04-18T00:11:53.985Z,9.10
2023-04-18T00:14:23.106Z,9.20
2023-04-18T00:16:54.227Z,9.40
2023-04-18T00:19:22.346Z,9.20
2023-04-18T00:21:53.289Z,9.10
2023-04-18T00:24:21.396Z,9.10
2023-04-18T00:26:49.941Z,9.00
2023-04-18T00:29:17.897Z,9.00
2023-04-18T00:31:46.066Z,9.00
2023-04-18T00:34:15.534Z,9.00
2023-04-18T00:36:43.491Z,8.90
2023-04-18T00:39:11.453Z,9.00
2023-04-18T00:41:39.311Z,9.00
2023-04-18T00:44:07.449Z,9.00
2023-04-18T00:46:35.614Z,9.00
2023-04-18T00:49:03.935Z,9.00
2023-04-18T00:51:34.730Z,9.30
2023-04-18T00:54:03.907Z,9.10
2023-04-18T00:56:31.901Z,9.10
2023-04-18T00:59:00.362Z,9.10
2023-04-18T01:01:28.526Z,9.40
2023-04-18T01:03:56.520Z,9.10
2023-04-18T01:06:25.433Z,9.10
2023-04-18T01:08:55.661Z,9.10
2023-04-18T01:11:24.130Z,9.10
2023-04-18T01:14:02.464Z,9.00
2023-04-18T01:16:32.865Z,9.10
2023-04-18T01:19:01.125Z,9.10
2023-04-18T01:21:31.077Z,9.00
2023-04-18T01:24:07.543Z,9.00
2023-04-18T01:26:35.896Z,9.40
2023-04-18T01:29:03.807Z,9.00
2023-04-18T01:31:34.468Z,9.00
2023-04-18T01:34:02.425Z,9.20
2023-04-18T01:36:30.503Z,9.00
2023-04-18T01:38:58.413Z,8.90
2023-04-18T01:41:29.785Z,8.90
2023-04-18T01:43:57.690Z,8.90
2023-04-18T01:46:25.894Z,8.90
2023-04-18T01:48:56.663Z,8.90
2023-04-18T01:51:24.858Z,8.90
2023-04-18T01:53:52.728Z,8.90
2023-04-18T01:56:20.976Z,9.00
2023-04-18T01:58:50.197Z,9.00
2023-04-18T02:01:18.259Z,9.00
2023-04-18T02:03:46.473Z,8.90
2023-04-18T02:06:14.531Z,8.90
2023-04-18T02:08:42.440Z,9.00
2023-04-18T02:11:10.282Z,8.90
2023-04-18T02:13:38.161Z,8.90
2023-04-18T02:16:12.327Z,8.90
2023-04-18T02:18:41.496Z,8.90
2023-04-18T02:21:11.119Z,8.90
2023-04-18T02:23:39.024Z,8.90
2023-04-18T02:26:06.985Z,8.90
2023-04-18T02:28:34.907Z,9.00
2023-04-18T02:31:02.776Z,9.00
2023-04-18T02:33:32.039Z,9.10
2023-04-18T02:35:59.944Z,9.00
2023-04-18T02:38:27.840Z,9.00
2023-04-18T02:40:56.071Z,9.00
2023-04-18T02:43:24.035Z,9.00
2023-04-18T02:45:51.967Z,9.00
2023-04-18T02:48:19.868Z,9.00
2023-04-18T02:50:49.212Z,9.00
2023-04-18T02:53:17.365Z,9.20
2023-04-18T02:55:45.238Z,9.00
2023-04-18T02:58:13.095Z,9.00
2023-04-18T03:00:41.003Z,9.00
2023-04-18T03:03:09.069Z,9.00
2023-04-18T03:05:36.913Z,9.00
2023-04-18T03:08:06.206Z,9.00
2023-04-18T03:10:34.073Z,9.10
2023-04-18T03:13:02.272Z,9.10
2023-04-18T03:15:31.081Z,9.20
2023-04-18T03:17:59.716Z,9.10
2023-04-18T03:20:27.673Z,9.10
2023-04-18T03:22:55.521Z,9.10
2023-04-18T03:25:24.713Z,9.10
2023-04-18T03:27:52.614Z,9.10
2023-04-18T03:30:21.212Z,9.40
2023-04-18T03:32:49.913Z,9.10
2023-04-18T03:35:17.978Z,9.10
2023-04-18T03:37:45.843Z,9.10
2023-04-18T03:40:13.850Z,9.10
2023-04-18T03:42:43.078Z,9.10
2023-04-18T03:45:11.625Z,9.10
2023-04-18T03:47:40.360Z,9.10
2023-04-18T03:50:09.043Z,9.00
2023-04-18T03:52:36.907Z,9.10
2023-04-18T03:55:05.136Z,9.10
2023-04-18T03:57:32.988Z,9.10
2023-04-18T04:00:02.272Z,9.10
2023-04-18T04:02:30.269Z,9.20
2023-04-18T04:04:58.234Z,9.10
2023-04-18T04:07:26.310Z,9.10
2023-04-18T04:09:54.387Z,9.00
2023-04-18T04:12:22.228Z,9.00
2023-04-18T04:14:50.162Z,9.20
2023-04-18T04:17:19.443Z,8.90
2023-04-18T04:19:47.269Z,8.90
2023-04-18T04:22:15.247Z,9.00
2023-04-18T04:24:43.202Z,9.00
2023-04-18T04:27:12.658Z,9.00
2023-04-18T04:29:41.397Z,9.00
2023-04-18T04:32:09.507Z,9.10
2023-04-18T04:34:41.353Z,9.00
2023-04-18T04:37:09.527Z,9.10
2023-04-18T04:39:40.833Z,9.00
2023-04-18T04:42:09.637Z,9.00
2023-04-18T04:44:37.814Z,8.90
2023-04-18T04:47:06.045Z,8.90
2023-04-18T04:49:34.612Z,8.90
2023-04-18T04:52:04.297Z,9.40
2023-04-18T04:54:32.246Z,8.80
2023-04-18T04:57:01.545Z,8.80
2023-04-18T04:59:29.424Z,8.90
2023-04-18T05:01:57.457Z,8.90
2023-04-18T05:04:26.075Z,8.90
2023-04-18T05:06:54.399Z,9.00
2023-04-18T05:09:24.096Z,9.00
2023-04-18T05:11:52.052Z,9.00
2023-04-18T05:14:20.832Z,9.00
2023-04-18T05:16:48.835Z,9.10
2023-04-18T05:19:16.802Z,9.20
2023-04-18T05:21:46.634Z,9.20
2023-04-18T05:24:14.746Z,9.20
2023-04-18T05:26:44.208Z,8.60
2023-04-18T05:29:12.267Z,9.30
2023-04-18T05:31:40.153Z,9.50
2023-04-18T05:34:08.078Z,9.50
2023-04-18T05:36:36.089Z,9.60
2023-04-18T05:39:04.205Z,9.70
2023-04-18T05:41:32.106Z,10.00
2023-04-18T05:44:05.223Z,9.90
2023-04-18T05:46:37.216Z,9.90
2023-04-18T05:49:05.223Z,9.90
2023-04-18T05:51:33.433Z,9.90
2023-04-18T05:54:01.359Z,9.90
2023-04-18T05:56:32.854Z,9.70
2023-04-18T05:59:02.828Z,10.20
2023-04-18T06:01:32.500Z,10.20
2023-04-18T06:04:00.780Z,10.10
2023-04-18T06:06:28.950Z,10.10
2023-04-18T06:08:56.858Z,10.10
2023-04-18T06:11:24.787Z,10.10
2023-04-18T06:13:55.621Z,10.10
2023-04-18T06:16:25.604Z,10.20
2023-04-18T06:18:53.535Z,10.30
2023-04-18T06:21:21.959Z,10.40
2023-04-18T06:23:50.192Z,10.30
2023-04-18T06:26:18.229Z,10.20
2023-04-18T06:28:46.329Z,10.40
2023-04-18T06:31:14.338Z,10.60
2023-04-18T06:33:43.641Z,10.90
2023-04-18T06:36:11.803Z,11.20
2023-04-18T06:38:39.673Z,11.70
2023-04-18T06:41:07.578Z,12.40
2023-04-18T06:43:35.915Z,13.10
2023-04-18T06:46:04.210Z,13.60
2023-04-18T06:48:32.106Z,13.60
2023-04-18T06:51:01.531Z,13.30
2023-04-18T06:53:29.857Z,12.90
2023-04-18T06:55:57.809Z,12.50
2023-04-18T06:58:25.735Z,12.30
2023-04-18T07:00:54.206Z,12.50
2023-04-18T07:03:22.553Z,12.50
2023-04-18T07:05:50.699Z,12.60
2023-04-18T07:08:20.008Z,12.70
2023-04-18T07:10:47.936Z,13.20
2023-04-18T07:13:15.955Z,13.10
2023-04-18T07:15:43.912Z,13.80
2023-04-18T07:18:13.250Z,15.40
2023-04-18T07:20:44.051Z,16.70
2023-04-18T07:23:11.920Z,17.00
2023-04-18T07:25:41.312Z,16.80
2023-04-18T07:28:09.182Z,17.00
2023-04-18T07:30:37.141Z,16.20
2023-04-18T07:33:06.291Z,15.40
2023-04-18T07:35:34.365Z,15.00
2023-04-18T07:38:02.347Z,14.80
2023-04-18T07:40:30.350Z,14.70
2023-04-18T07:42:59.573Z,14.70
2023-04-18T07:45:27.507Z,14.50
2023-04-18T07:47:55.698Z,14.10
2023-04-18T07:50:24.577Z,13.90
2023-04-18T07:52:52.489Z,13.80
2023-04-18T07:55:20.570Z,13.70
2023-04-18T07:57:50.382Z,13.70
2023-04-18T08:00:20.506Z,13.50
2023-04-18T08:02:48.579Z,13.20
2023-04-18T08:05:16.931Z,12.90
2023-04-18T08:07:44.933Z,13.10
2023-04-18T08:10:13.164Z,13.70
2023-04-18T08:12:41.209Z,14.10
2023-04-18T08:15:13.798Z,14.40
2023-04-18T08:17:45.281Z,14.70
2023-04-18T08:20:14.111Z,14.90
2023-04-18T08:22:57.660Z,14.90
2023-04-18T08:25:31.708Z,14.80
2023-04-18T08:27:59.829Z,14.60
2023-04-18T08:30:32.338Z,14.40
2023-04-18T08:33:02.529Z,14.30
2023-04-18T08:35:31.151Z,14.50
2023-04-18T08:37:59.231Z,14.90
2023-04-18T08:40:27.261Z,15.50
2023-04-18T08:42:58.386Z,16.10
2023-04-18T08:45:26.563Z,16.50
2023-04-18T08:47:56.075Z,17.00
2023-04-18T08:50:27.718Z,17.50
2023-04-18T08:52:56.800Z,17.60
2023-04-18T08:55:25.209Z,17.40
2023-04-18T08:57:55.807Z,16.70
2023-04-18T09:00:31.731Z,16.10
2023-04-18T09:03:00.363Z,15.40
2023-04-18T09:05:30.050Z,15.20
2023-04-18T09:07:58.062Z,15.10
2023-04-18T09:10:29.044Z,14.80
2023-04-18T09:12:58.255Z,14.50
2023-04-18T09:15:29.446Z,14.40
2023-04-18T09:18:05.295Z,14.70
2023-04-18T09:20:41.466Z,15.20
2023-04-18T09:23:11.603Z,15.20
2023-04-18T09:25:46.790Z,15.00
2023-04-18T09:28:27.080Z,15.00
2023-04-18T09:30:59.895Z,15.10
2023-04-18T09:33:33.242Z,15.00
2023-04-18T09:36:21.441Z,14.90
2023-04-18T09:38:56.300Z,14.90
2023-04-18T09:41:25.301Z,14.90
2023-04-18T09:44:14.317Z,14.90
2023-04-18T09:46:46.115Z,14.90
2023-04-18T09:49:15.210Z,15.00
2023-04-18T09:51:46.112Z,15.00
2023-04-18T09:54:16.883Z,15.10
2023-04-18T09:56:46.857Z,15.10
2023-04-18T09:59:21.480Z,15.00
2023-04-18T10:01:52.070Z,15.10
2023-04-18T10:04:20.539Z,15.10
2023-04-18T10:06:50.789Z,15.00
2023-04-18T10:09:19.898Z,15.00
2023-04-18T10:11:48.377Z,15.00
2023-04-18T10:14:17.688Z,15.00
2023-04-18T10:16:48.633Z,14.90
2023-04-18T10:19:23.091Z,14.70
2023-04-18T10:21:58.481Z,14.60
2023-04-18T10:24:53.314Z,14.50
2023-04-18T10:27:58.482Z,14.40
2023-04-18T10:30:56.328Z,14.90
2023-04-18T10:33:33.495Z,16.70
2023-04-18T10:36:06.085Z,17.90
2023-04-18T10:38:36.260Z,18.10
2023-04-18T10:41:23.257Z,17.70
2023-04-18T10:44:21.885Z,17.10
2023-04-18T10:47:32.998Z,16.90
2023-04-18T10:50:06.157Z,16.80
2023-04-18T10:52:35.558Z,16.40
2023-04-18T10:55:14.043Z,16.10
2023-04-18T10:57:43.695Z,16.00
2023-04-18T11:00:13.975Z,16.40
2023-04-18T11:02:49.088Z,16.50
2023-04-18T11:05:21.752Z,16.30
2023-04-18T11:07:49.903Z,16.00
2023-04-18T11:10:21.014Z,15.80
2023-04-18T11:12:52.369Z,15.50
2023-04-18T11:15:22.559Z,15.20
2023-04-18T11:17:58.441Z,15.10
2023-04-18T11:20:26.830Z,15.10
2023-04-18T11:22:56.310Z,15.10
2023-04-18T11:25:28.840Z,15.00
2023-04-18T11:28:00.219Z,15.00
2023-04-18T11:30:29.172Z,15.00
2023-04-18T11:32:57.234Z,15.00
2023-04-18T11:35:25.489Z,15.10
2023-04-18T11:37:56.154Z,15.20
2023-04-18T11:40:24.451Z,15.40
2023-04-18T11:42:56.387Z,15.50
2023-04-18T11:45:24.327Z,15.90
2023-04-18T11:47:58.199Z,16.20
2023-04-18T11:50:26.869Z,16.40
2023-04-18T11:52:56.277Z,16.50
2023-04-18T11:55:27.293Z,16.40
2023-04-18T11:57:58.052Z,16.30
2023-04-18T12:00:34.255Z,16.20
2023-04-18T12:03:04.643Z,16.00
2023-04-18T12:05:34.460Z,15.80
2023-04-18T12:08:11.506Z,15.50
2023-04-18T12:10:46.236Z,15.30
2023-04-18T12:13:15.961Z,15.40
2023-04-18T12:15:45.830Z,15.50
2023-04-18T12:18:15.360Z,15.60
2023-04-18T12:20:50.307Z,15.70
2023-04-18T12:23:48.956Z,15.80
2023-04-18T12:26:50.561Z,16.00
2023-04-18T12:29:44.677Z,16.50
2023-04-18T12:32:17.255Z,16.60
2023-04-18T12:35:10.505Z,16.60
2023-04-18T12:37:50.402Z,16.30
2023-04-18T12:40:53.084Z,15.90
2023-04-18T12:43:40.154Z,15.50
2023-04-18T12:46:21.752Z,15.10
2023-04-18T12:49:35.359Z,14.80
2023-04-18T12:52:10.704Z,14.70
2023-04-18T12:54:57.152Z,14.60
2023-04-18T12:58:18.782Z,14.60
2023-04-18T13:01:10.936Z,14.40
2023-04-18T13:04:21.948Z,14.40
2023-04-18T13:07:34.711Z,14.40
2023-04-18T13:10:32.651Z,14.30
2023-04-18T13:13:06.394Z,14.20
2023-04-18T13:15:34.482Z,14.20
2023-04-18T13:18:05.192Z,14.10
2023-04-18T13:20:35.018Z,14.00
2023-04-18T13:23:03.796Z,14.00
2023-04-18T13:25:31.863Z,14.00
2023-04-18T13:28:00.932Z,14.00
2023-04-18T13:30:29.368Z,14.10
2023-04-18T13:32:57.543Z,14.10
2023-04-18T13:35:25.712Z,14.20
2023-04-18T13:38:33.375Z,14.40
2023-04-18T13:41:12.630Z,14.60
2023-04-18T13:43:44.044Z,14.70
2023-04-18T13:46:16.915Z,14.80
2023-04-18T13:48:46.992Z,14.90
2023-04-18T13:51:16.914Z,14.90
2023-04-18T13:53:48.469Z,15.00
2023-04-18T13:56:19.541Z,14.90
2023-04-18T13:58:48.015Z,14.90
2023-04-18T14:01:16.881Z,14.70
2023-04-18T14:03:45.162Z,14.50
2023-04-18T14:06:14.133Z,14.50
2023-04-18T14:08:43.555Z,14.40
2023-04-18T14:11:12.599Z,14.30
2023-04-18T14:13:43.962Z,14.20
2023-04-18T14:16:17.584Z,14.30
2023-04-18T14:18:46.113Z,14.20
2023-04-18T14:21:39.652Z,14.20
2023-04-18T14:24:12.176Z,14.10
2023-04-18T14:26:41.983Z,14.00
2023-04-18T14:29:12.560Z,14.00
2023-04-18T14:31:40.894Z,13.90
2023-04-18T14:34:09.819Z,13.90
2023-04-18T14:36:37.989Z,13.90
2023-04-18T14:39:06.301Z,14.00
2023-04-18T14:41:34.321Z,14.00
2023-04-18T14:44:04.424Z,14.10
2023-04-18T14:46:35.240Z,14.30
2023-04-18T14:52:08.576Z,14.50
2023-04-18T14:54:36.577Z,14.60
2023-04-18T14:57:04.593Z,14.60
2023-04-18T14:59:32.604Z,14.60
2023-04-18T15:02:02.079Z,14.60
2023-04-18T15:04:30.799Z,14.40
2023-04-18T15:10:47.571Z,14.30
2023-04-18T15:13:15.889Z,14.20
2023-04-18T15:16:06.514Z,14.20
2023-04-18T15:18:35.825Z,14.30
2023-04-18T15:21:03.866Z,14.20
2023-04-18T15:23:32.077Z,14.10
2023-04-18T15:26:00.838Z,14.10
2023-04-18T15:29:03.729Z,14.10
2023-04-18T15:31:32.660Z,14.00
2023-04-18T15:34:02.217Z,14.00
2023-04-18T15:36:31.772Z,14.10
2023-04-18T15:38:59.775Z,14.20
2023-04-18T15:41:27.790Z,14.30
2023-04-18T15:43:55.729Z,14.20
2023-04-18T15:46:23.780Z,14.30
2023-04-18T15:48:54.604Z,14.20
2023-04-18T15:51:28.439Z,14.10
2023-04-18T15:53:56.660Z,14.00
2023-04-18T15:56:27.368Z,13.80
2023-04-18T15:58:57.671Z,13.80
2023-04-18T16:01:25.771Z,13.70
2023-04-18T16:03:53.790Z,13.70
2023-04-18T16:06:23.555Z,13.70
2023-04-18T16:08:51.525Z,13.70
2023-04-18T16:15:00.070Z,13.60
2023-04-18T16:17:28.121Z,13.60
2023-04-18T16:19:56.045Z,13.50
2023-04-18T16:22:25.303Z,13.60
2023-04-18T16:24:53.238Z,13.50
2023-04-18T16:27:21.312Z,13.50
2023-04-18T16:29:49.686Z,13.50
2023-04-18T16:32:17.586Z,13.50
2023-04-18T16:34:45.656Z,13.40
2023-04-18T16:37:13.591Z,13.40
2023-04-18T16:39:42.871Z,13.30
2023-04-18T16:42:11.321Z,13.20
2023-04-18T16:44:40.395Z,13.20
2023-04-18T16:47:08.521Z,13.20
2023-04-18T16:49:37.932Z,13.10
2023-04-18T16:52:06.621Z,13.00
2023-04-18T16:54:34.650Z,13.00
2023-04-18T16:57:04.747Z,13.00
2023-04-18T16:59:33.419Z,13.00
2023-04-18T17:03:20.635Z,12.90
2023-04-18T17:05:48.923Z,12.70
2023-04-18T17:08:17.533Z,12.60
2023-04-18T17:14:30.711Z,12.50
2023-04-18T17:17:01.569Z,12.40
2023-04-18T17:19:29.534Z,12.40
2023-04-18T17:21:57.489Z,12.40
2023-04-18T17:24:25.409Z,12.40
2023-04-18T17:26:57.998Z,12.30
2023-04-18T17:29:26.588Z,12.30
2023-04-18T17:35:37.580Z,12.20
2023-04-18T17:38:05.900Z,12.10
2023-04-18T17:40:35.433Z,12.10
2023-04-18T17:43:03.402Z,12.00
2023-04-18T17:45:31.435Z,12.00
2023-04-18T17:48:02.181Z,12.00
2023-04-18T17:50:30.495Z,11.90
2023-04-18T17:52:59.974Z,11.90
2023-04-18T17:55:28.182Z,11.90
2023-04-18T17:57:56.400Z,11.90
2023-04-18T18:00:25.130Z,11.80
2023-04-18T18:02:53.440Z,11.70
2023-04-18T18:05:21.496Z,11.70
2023-04-18T18:07:50.791Z,11.70
2023-04-18T18:10:23.863Z,11.70
2023-04-18T18:12:52.036Z,11.60
2023-04-18T18:15:20.620Z,11.70
2023-04-18T18:18:07.197Z,11.70
2023-04-18T18:20:35.285Z,11.60
2023-04-18T18:23:03.424Z,11.60
2023-04-18T18:25:32.870Z,11.60
2023-04-18T18:28:02.176Z,11.60
2023-04-18T18:30:30.346Z,11.60
2023-04-18T18:32:58.379Z,11.60
2023-04-18T18:35:26.502Z,11.60
2023-04-18T18:37:54.423Z,11.60
2023-04-18T18:40:22.696Z,11.50
2023-04-18T18:42:54.584Z,11.50
2023-04-18T18:45:22.660Z,11.50
2023-04-18T18:47:51.223Z,11.50
2023-04-18T18:50:19.448Z,11.50
2023-04-18T18:52:47.521Z,11.50
2023-04-18T18:55:16.493Z,11.50
2023-04-18T18:57:44.534Z,11.50
2023-04-18T19:00:14.878Z,11.50
2023-04-18T19:02:43.140Z,11.60
2023-04-18T19:05:13.063Z,11.60
2023-04-18T19:07:46.133Z,11.60
2023-04-18T19:14:03.093Z,11.50
2023-04-18T19:16:34.063Z,11.50
2023-04-18T19:19:02.135Z,11.40
2023-04-18T19:21:30.211Z,11.40
2023-04-18T19:23:58.279Z,11.40
2023-04-18T19:26:26.419Z,11.40
2023-04-18T19:28:54.651Z,11.40
2023-04-18T19:31:22.888Z,11.30
2023-04-18T19:34:09.920Z,11.40
2023-04-18T19:36:40.896Z,11.40
2023-04-18T19:39:12.214Z,11.40
2023-04-18T19:41:41.771Z,11.40
2023-04-18T19:44:09.847Z,11.30
2023-04-18T19:46:37.935Z,11.30
2023-04-18T19:49:07.375Z,11.30
2023-04-18T19:51:35.566Z,11.20
2023-04-18T19:54:04.718Z,11.20
2023-04-18T19:56:32.798Z,11.20
2023-04-18T19:59:01.755Z,11.00
2023-04-18T20:01:29.886Z,11.00
2023-04-18T20:04:00.048Z,11.00
2023-04-18T20:06:29.873Z,11.00
2023-04-18T20:08:58.141Z,10.90
2023-04-18T20:11:26.122Z,10.90
2023-04-18T20:13:55.697Z,10.90
2023-04-18T20:16:24.480Z,10.90
2023-04-18T20:18:54.838Z,10.80
2023-04-18T20:25:11.966Z,10.70
2023-04-18T20:27:40.102Z,10.80
2023-04-18T20:30:09.771Z,10.70
2023-04-18T20:32:37.953Z,10.80
2023-04-18T20:35:07.464Z,10.80
2023-04-18T20:37:36.752Z,10.70
2023-04-18T20:40:08.489Z,10.70
2023-04-18T20:42:45.056Z,10.70
2023-04-18T20:45:13.939Z,10.70
2023-04-18T20:47:42.394Z,10.70
2023-04-18T20:50:11.394Z,10.70
2023-04-18T20:52:42.853Z,10.80
2023-04-18T20:55:11.415Z,10.80
2023-04-18T20:57:40.754Z,10.80
2023-04-18T21:00:10.645Z,10.70
2023-04-18T21:02:39.003Z,10.80
2023-04-18T21:05:07.445Z,10.70
2023-04-18T21:07:36.020Z,10.80
2023-04-18T21:10:05.447Z,10.80
2023-04-18T21:12:33.534Z,10.80
2023-04-18T21:15:03.381Z,10.90
2023-04-18T21:17:31.479Z,10.80
2023-04-18T21:19:59.507Z,10.80
2023-04-18T21:22:27.753Z,10.80
2023-04-18T21:24:56.002Z,10.70
2023-04-18T21:27:24.088Z,10.80
2023-04-18T21:29:52.102Z,10.80
2023-04-18T21:32:21.529Z,10.80
2023-04-18T21:34:49.558Z,10.80
2023-04-18T21:37:17.584Z,10.80
2023-04-18T21:39:45.668Z,10.80
2023-04-18T21:42:13.963Z,10.90
2023-04-18T21:44:41.970Z,10.90
2023-04-18T21:47:10.047Z,10.90
2023-04-18T21:49:39.413Z,10.90
2023-04-18T21:52:07.759Z,10.90
2023-04-18T21:54:35.810Z,10.90
2023-04-18T21:57:05.964Z,10.90
2023-04-18T21:59:33.924Z,11.00
2023-04-18T22:02:02.123Z,10.90
2023-04-18T22:04:30.352Z,10.90
2023-04-18T22:06:59.960Z,10.90
2023-04-18T22:09:28.571Z,10.90
2023-04-18T22:11:57.665Z,10.90
2023-04-18T22:14:26.096Z,10.90
2023-04-18T22:16:54.776Z,10.90
2023-04-18T22:19:22.873Z,10.90
2023-04-18T22:21:50.878Z,10.90
2023-04-18T22:24:21.785Z,10.80
2023-04-18T22:26:49.984Z,10.70
2023-04-18T22:29:17.976Z,10.60
2023-04-18T22:31:46.233Z,10.50
2023-04-18T22:34:14.353Z,10.50
2023-04-18T22:36:42.800Z,10.40
2023-04-18T22:39:12.028Z,10.20
2023-04-18T22:41:41.419Z,10.40
2023-04-18T22:44:09.373Z,10.30
2023-04-18T22:46:38.817Z,10.30
2023-04-18T22:49:07.262Z,10.50
2023-04-18T22:51:35.281Z,10.50
2023-04-18T22:54:03.340Z,10.40
2023-04-18T22:56:31.397Z,10.40
2023-04-18T22:59:00.791Z,10.30
2023-04-18T23:01:28.906Z,10.30
2023-04-18T23:03:57.082Z,10.30
2023-04-18T23:06:25.283Z,10.20
2023-04-18T23:08:53.297Z,10.20
2023-04-18T23:11:21.210Z,10.10
2023-04-18T23:13:49.124Z,10.10
2023-04-18T23:16:18.507Z,10.00
2023-04-18T23:18:46.502Z,10.10
2023-04-18T23:21:14.429Z,10.00
2023-04-18T23:23:42.418Z,9.90
2023-04-18T23:26:14.938Z,9.90
2023-04-18T23:28:43.322Z,9.80
2023-04-18T23:31:11.454Z,9.70
2023-04-18T23:33:40.819Z,9.70
2023-04-18T23:36:09.511Z,9.70
2023-04-18T23:38:38.427Z,9.70
2023-04-18T23:41:06.509Z,9.80
2023-04-18T23:43:34.881Z,9.80
2023-04-18T23:46:02.814Z,9.90
2023-04-18T23:48:30.934Z,10.10
2023-04-18T23:51:00.443Z,10.00
2023-04-18T23:53:28.435Z,10.00
2023-04-18T23:55:56.463Z,10.10
2023-04-18T23:58:24.989Z,10.10
